sensor_id;sensor_type;location;lat;lon;timestamp;P1;durP1;ratioP1;P2;durP2;ratioP2
17937;SDS011;16051;53.024;8.630;2023-03-14T00:02:57;8.27;;;2.80;;
17937;SDS011;16051;53.024;8.630;2023-03-14T00:07:00;4.33;;;2.40;;
17937;SDS011;16051;53.024;8.630;2023-03-14T00:11:06;5.57;;;2.30;;
17937;SDS011;16051;53.024;8.630;2023-03-14T00:15:12;6.30;;;2.97;;
17937;SDS011;16051;53.024;8.630;2023-03-14T00:19:19;4.43;;;2.30;;
17937;SDS011;16051;53.024;8.630;2023-03-14T00:23:23;4.03;;;2.03;;
17937;SDS011;16051;53.024;8.630;2023-03-14T00:27:25;5.83;;;2.47;;
17937;SDS011;16051;53.024;8.630;2023-03-14T00:31:34;6.77;;;2.33;;
17937;SDS011;16051;53.024;8.630;2023-03-14T00:35:36;4.97;;;2.17;;
17937;SDS011;16051;53.024;8.630;2023-03-14T00:39:39;4.63;;;2.40;;
17937;SDS011;16051;53.024;8.630;2023-03-14T00:47:55;6.67;;;2.50;;
17937;SDS011;16051;53.024;8.630;2023-03-14T00:51:57;6.53;;;2.47;;
17937;SDS011;16051;53.024;8.630;2023-03-14T00:56:03;6.47;;;2.57;;
17937;SDS011;16051;53.024;8.630;2023-03-14T01:00:08;5.50;;;2.80;;
17937;SDS011;16051;53.024;8.630;2023-03-14T01:04:12;6.83;;;2.93;;
17937;SDS011;16051;53.024;8.630;2023-03-14T01:12:42;6.33;;;3.37;;
17937;SDS011;16051;53.024;8.630;2023-03-14T01:16:44;7.67;;;3.30;;
17937;SDS011;16051;53.024;8.630;2023-03-14T01:20:46;7.37;;;3.60;;
17937;SDS011;16051;53.024;8.630;2023-03-14T01:24:48;5.63;;;3.77;;
17937;SDS011;16051;53.024;8.630;2023-03-14T01:28:52;7.97;;;3.50;;
17937;SDS011;16051;53.024;8.630;2023-03-14T01:32:56;7.20;;;3.40;;
17937;SDS011;16051;53.024;8.630;2023-03-14T01:41:26;5.73;;;3.27;;
17937;SDS011;16051;53.024;8.630;2023-03-14T01:50:20;9.10;;;3.60;;
17937;SDS011;16051;53.024;8.630;2023-03-14T01:54:24;8.03;;;3.13;;
17937;SDS011;16051;53.024;8.630;2023-03-14T01:58:32;6.60;;;3.43;;
17937;SDS011;16051;53.024;8.630;2023-03-14T02:02:37;7.13;;;3.37;;
17937;SDS011;16051;53.024;8.630;2023-03-14T02:06:46;7.23;;;3.47;;
17937;SDS011;16051;53.024;8.630;2023-03-14T02:10:53;6.47;;;3.37;;
17937;SDS011;16051;53.024;8.630;2023-03-14T02:14:55;7.57;;;3.93;;
17937;SDS011;16051;53.024;8.630;2023-03-14T02:18:59;6.83;;;4.10;;
17937;SDS011;16051;53.024;8.630;2023-03-14T02:23:08;6.40;;;4.37;;
17937;SDS011;16051;53.024;8.630;2023-03-14T02:27:12;7.00;;;3.80;;
17937;SDS011;16051;53.024;8.630;2023-03-14T02:31:16;7.00;;;4.23;;
17937;SDS011;16051;53.024;8.630;2023-03-14T02:35:19;7.20;;;3.60;;
17937;SDS011;16051;53.024;8.630;2023-03-14T02:39:35;6.80;;;3.60;;
17937;SDS011;16051;53.024;8.630;2023-03-14T02:43:41;12.57;;;3.60;;
17937;SDS011;16051;53.024;8.630;2023-03-14T02:48:02;7.37;;;3.07;;
17937;SDS011;16051;53.024;8.630;2023-03-14T02:52:11;5.97;;;3.37;;
17937;SDS011;16051;53.024;8.630;2023-03-14T02:56:14;6.70;;;3.23;;
17937;SDS011;16051;53.024;8.630;2023-03-14T03:00:19;5.53;;;3.13;;
17937;SDS011;16051;53.024;8.630;2023-03-14T03:04:28;10.03;;;3.20;;
17937;SDS011;16051;53.024;8.630;2023-03-14T03:08:30;4.87;;;2.83;;
17937;SDS011;16051;53.024;8.630;2023-03-14T03:12:33;8.90;;;2.83;;
17937;SDS011;16051;53.024;8.630;2023-03-14T03:16:36;5.17;;;2.77;;
17937;SDS011;16051;53.024;8.630;2023-03-14T03:20:38;5.40;;;2.70;;
17937;SDS011;16051;53.024;8.630;2023-03-14T03:24:41;7.93;;;2.20;;
17937;SDS011;16051;53.024;8.630;2023-03-14T03:28:44;4.13;;;2.27;;
17937;SDS011;16051;53.024;8.630;2023-03-14T03:32:50;4.50;;;2.00;;
17937;SDS011;16051;53.024;8.630;2023-03-14T03:36:55;5.80;;;2.37;;
17937;SDS011;16051;53.024;8.630;2023-03-14T03:40:57;5.33;;;2.87;;
17937;SDS011;16051;53.024;8.630;2023-03-14T03:49:08;6.20;;;2.67;;
17937;SDS011;16051;53.024;8.630;2023-03-14T03:53:10;7.57;;;2.90;;
17937;SDS011;16051;53.024;8.630;2023-03-14T03:57:12;5.87;;;2.37;;
17937;SDS011;16051;53.024;8.630;2023-03-14T04:05:31;3.10;;;2.20;;
17937;SDS011;16051;53.024;8.630;2023-03-14T04:09:34;3.73;;;2.70;;
17937;SDS011;16051;53.024;8.630;2023-03-14T04:13:36;4.63;;;2.27;;
17937;SDS011;16051;53.024;8.630;2023-03-14T04:17:38;7.50;;;2.03;;
17937;SDS011;16051;53.024;8.630;2023-03-14T04:21:42;4.53;;;2.50;;
17937;SDS011;16051;53.024;8.630;2023-03-14T04:25:46;5.57;;;2.30;;
17937;SDS011;16051;53.024;8.630;2023-03-14T04:29:49;7.33;;;2.47;;
17937;SDS011;16051;53.024;8.630;2023-03-14T04:33:51;7.33;;;2.53;;
17937;SDS011;16051;53.024;8.630;2023-03-14T04:38:09;4.60;;;2.03;;
17937;SDS011;16051;53.024;8.630;2023-03-14T04:42:14;4.67;;;2.17;;
17937;SDS011;16051;53.024;8.630;2023-03-14T04:46:16;6.20;;;2.13;;
17937;SDS011;16051;53.024;8.630;2023-03-14T04:50:18;3.63;;;1.87;;
17937;SDS011;16051;53.024;8.630;2023-03-14T04:54:22;5.73;;;2.07;;
17937;SDS011;16051;53.024;8.630;2023-03-14T04:58:24;5.97;;;2.30;;
17937;SDS011;16051;53.024;8.630;2023-03-14T05:02:26;4.43;;;1.70;;
17937;SDS011;16051;53.024;8.630;2023-03-14T05:06:37;3.87;;;1.67;;
17937;SDS011;16051;53.024;8.630;2023-03-14T05:10:41;6.53;;;2.20;;
17937;SDS011;16051;53.024;8.630;2023-03-14T05:14:43;5.03;;;1.80;;
17937;SDS011;16051;53.024;8.630;2023-03-14T05:18:45;3.17;;;1.50;;
17937;SDS011;16051;53.024;8.630;2023-03-14T05:22:48;4.40;;;1.80;;
17937;SDS011;16051;53.024;8.630;2023-03-14T05:26:51;4.10;;;1.50;;
17937;SDS011;16051;53.024;8.630;2023-03-14T05:30:58;5.17;;;1.43;;
17937;SDS011;16051;53.024;8.630;2023-03-14T05:35:00;4.00;;;1.43;;
17937;SDS011;16051;53.024;8.630;2023-03-14T05:39:03;3.43;;;1.30;;
17937;SDS011;16051;53.024;8.630;2023-03-14T05:43:06;4.67;;;1.40;;
17937;SDS011;16051;53.024;8.630;2023-03-14T05:47:10;6.33;;;1.60;;
17937;SDS011;16051;53.024;8.630;2023-03-14T05:51:12;6.10;;;1.67;;
17937;SDS011;16051;53.024;8.630;2023-03-14T05:55:15;7.27;;;1.87;;
17937;SDS011;16051;53.024;8.630;2023-03-14T05:59:18;5.37;;;1.50;;
17937;SDS011;16051;53.024;8.630;2023-03-14T06:03:20;3.63;;;1.17;;
17937;SDS011;16051;53.024;8.630;2023-03-14T06:07:23;3.60;;;1.37;;
17937;SDS011;16051;53.024;8.630;2023-03-14T06:20:11;3.10;;;1.27;;
17937;SDS011;16051;53.024;8.630;2023-03-14T06:28:50;2.17;;;1.27;;
17937;SDS011;16051;53.024;8.630;2023-03-14T06:32:54;6.70;;;1.50;;
17937;SDS011;16051;53.024;8.630;2023-03-14T06:36:57;1.63;;;1.20;;
17937;SDS011;16051;53.024;8.630;2023-03-14T06:41:02;4.17;;;1.50;;
17937;SDS011;16051;53.024;8.630;2023-03-14T06:45:06;4.30;;;1.90;;
17937;SDS011;16051;53.024;8.630;2023-03-14T06:49:11;4.63;;;2.43;;
17937;SDS011;16051;53.024;8.630;2023-03-14T06:53:13;3.27;;;1.63;;
17937;SDS011;16051;53.024;8.630;2023-03-14T06:57:16;4.97;;;1.90;;
17937;SDS011;16051;53.024;8.630;2023-03-14T07:01:20;6.50;;;1.90;;
17937;SDS011;16051;53.024;8.630;2023-03-14T07:09:49;6.83;;;2.40;;
17937;SDS011;16051;53.024;8.630;2023-03-14T07:13:51;5.27;;;1.97;;
17937;SDS011;16051;53.024;8.630;2023-03-14T07:17:54;6.03;;;2.23;;
17937;SDS011;16051;53.024;8.630;2023-03-14T07:21:57;7.10;;;1.77;;
17937;SDS011;16051;53.024;8.630;2023-03-14T07:26:01;7.20;;;2.23;;
17937;SDS011;16051;53.024;8.630;2023-03-14T07:30:04;6.93;;;2.00;;
17937;SDS011;16051;53.024;8.630;2023-03-14T07:34:10;6.70;;;2.17;;
17937;SDS011;16051;53.024;8.630;2023-03-14T07:38:13;6.57;;;2.20;;
17937;SDS011;16051;53.024;8.630;2023-03-14T07:42:15;8.00;;;2.03;;
17937;SDS011;16051;53.024;8.630;2023-03-14T07:46:17;7.77;;;1.93;;
17937;SDS011;16051;53.024;8.630;2023-03-14T07:50:28;8.40;;;2.33;;
17937;SDS011;16051;53.024;8.630;2023-03-14T07:54:31;7.70;;;2.00;;
17937;SDS011;16051;53.024;8.630;2023-03-14T07:58:33;7.13;;;1.73;;
17937;SDS011;16051;53.024;8.630;2023-03-14T08:02:36;4.33;;;1.70;;
17937;SDS011;16051;53.024;8.630;2023-03-14T08:06:38;3.53;;;1.80;;
17937;SDS011;16051;53.024;8.630;2023-03-14T08:10:42;5.20;;;1.57;;
17937;SDS011;16051;53.024;8.630;2023-03-14T08:14:44;5.37;;;1.50;;
17937;SDS011;16051;53.024;8.630;2023-03-14T08:18:46;9.00;;;2.00;;
17937;SDS011;16051;53.024;8.630;2023-03-14T08:22:48;5.63;;;1.73;;
17937;SDS011;16051;53.024;8.630;2023-03-14T08:26:52;8.27;;;1.73;;
17937;SDS011;16051;53.024;8.630;2023-03-14T08:30:54;5.43;;;1.83;;
17937;SDS011;16051;53.024;8.630;2023-03-14T08:35:03;5.37;;;1.70;;
17937;SDS011;16051;53.024;8.630;2023-03-14T08:39:06;4.73;;;1.53;;
17937;SDS011;16051;53.024;8.630;2023-03-14T08:43:10;2.93;;;1.37;;
17937;SDS011;16051;53.024;8.630;2023-03-14T08:47:13;5.27;;;1.43;;
17937;SDS011;16051;53.024;8.630;2023-03-14T08:51:23;5.43;;;1.73;;
17937;SDS011;16051;53.024;8.630;2023-03-14T08:55:25;4.80;;;2.60;;
17937;SDS011;16051;53.024;8.630;2023-03-14T08:59:29;4.00;;;1.83;;
17937;SDS011;16051;53.024;8.630;2023-03-14T09:03:31;3.40;;;2.00;;
17937;SDS011;16051;53.024;8.630;2023-03-14T09:07:33;7.37;;;2.67;;
17937;SDS011;16051;53.024;8.630;2023-03-14T09:11:36;5.20;;;1.70;;
17937;SDS011;16051;53.024;8.630;2023-03-14T09:15:39;3.30;;;0.70;;
17937;SDS011;16051;53.024;8.630;2023-03-14T09:19:51;3.90;;;1.13;;
17937;SDS011;16051;53.024;8.630;2023-03-14T09:23:53;3.90;;;1.10;;
17937;SDS011;16051;53.024;8.630;2023-03-14T09:27:55;4.17;;;1.03;;
17937;SDS011;16051;53.024;8.630;2023-03-14T09:31:59;3.87;;;1.00;;
17937;SDS011;16051;53.024;8.630;2023-03-14T09:36:02;2.57;;;0.93;;
17937;SDS011;16051;53.024;8.630;2023-03-14T09:40:09;1.57;;;0.50;;
17937;SDS011;16051;53.024;8.630;2023-03-14T09:44:24;3.03;;;0.83;;
17937;SDS011;16051;53.024;8.630;2023-03-14T09:48:31;2.73;;;0.73;;
17937;SDS011;16051;53.024;8.630;2023-03-14T09:52:44;3.93;;;0.57;;
17937;SDS011;16051;53.024;8.630;2023-03-14T09:56:53;1.57;;;0.50;;
17937;SDS011;16051;53.024;8.630;2023-03-14T10:00:57;0.77;;;0.33;;
17937;SDS011;16051;53.024;8.630;2023-03-14T10:05:05;1.27;;;0.20;;
17937;SDS011;16051;53.024;8.630;2023-03-14T10:09:17;1.43;;;0.37;;
17937;SDS011;16051;53.024;8.630;2023-03-14T10:17:40;0.83;;;0.40;;
17937;SDS011;16051;53.024;8.630;2023-03-14T10:21:50;0.30;;;0.30;;
17937;SDS011;16051;53.024;8.630;2023-03-14T10:25:59;1.40;;;0.70;;
17937;SDS011;16051;53.024;8.630;2023-03-14T10:30:27;0.30;;;0.30;;
17937;SDS011;16051;53.024;8.630;2023-03-14T10:35:04;0.73;;;0.60;;
17937;SDS011;16051;53.024;8.630;2023-03-14T10:39:37;0.87;;;0.50;;
17937;SDS011;16051;53.024;8.630;2023-03-14T10:43:56;1.00;;;0.60;;
17937;SDS011;16051;53.024;8.630;2023-03-14T10:52:46;1.33;;;0.70;;
17937;SDS011;16051;53.024;8.630;2023-03-14T10:56:58;1.37;;;0.83;;
17937;SDS011;16051;53.024;8.630;2023-03-14T11:01:04;3.13;;;1.10;;
17937;SDS011;16051;53.024;8.630;2023-03-14T11:05:29;2.23;;;1.00;;
17937;SDS011;16051;53.024;8.630;2023-03-14T11:09:41;4.40;;;0.70;;
17937;SDS011;16051;53.024;8.630;2023-03-14T11:13:58;1.27;;;0.50;;
17937;SDS011;16051;53.024;8.630;2023-03-14T11:22:54;3.73;;;0.70;;
17937;SDS011;16051;53.024;8.630;2023-03-14T11:27:04;1.33;;;0.70;;
17937;SDS011;16051;53.024;8.630;2023-03-14T11:31:20;3.43;;;1.30;;
17937;SDS011;16051;53.024;8.630;2023-03-14T11:35:30;3.23;;;1.07;;
17937;SDS011;16051;53.024;8.630;2023-03-14T11:39:38;3.07;;;1.33;;
17937;SDS011;16051;53.024;8.630;2023-03-14T11:43:49;5.07;;;1.40;;
17937;SDS011;16051;53.024;8.630;2023-03-14T11:48:00;5.83;;;1.80;;
17937;SDS011;16051;53.024;8.630;2023-03-14T11:52:17;6.40;;;1.40;;
17937;SDS011;16051;53.024;8.630;2023-03-14T11:56:29;10.70;;;2.03;;
17937;SDS011;16051;53.024;8.630;2023-03-14T12:00:48;3.47;;;1.80;;
17937;SDS011;16051;53.024;8.630;2023-03-14T12:09:40;7.50;;;1.90;;
17937;SDS011;16051;53.024;8.630;2023-03-14T12:13:45;13.33;;;2.47;;
17937;SDS011;16051;53.024;8.630;2023-03-14T12:17:52;8.47;;;1.97;;
17937;SDS011;16051;53.024;8.630;2023-03-14T12:21:59;13.93;;;2.70;;
17937;SDS011;16051;53.024;8.630;2023-03-14T12:26:49;9.73;;;2.57;;
17937;SDS011;16051;53.024;8.630;2023-03-14T12:35:44;15.57;;;2.43;;
17937;SDS011;16051;53.024;8.630;2023-03-14T12:39:58;11.43;;;2.87;;
17937;SDS011;16051;53.024;8.630;2023-03-14T12:48:46;10.57;;;2.30;;
17937;SDS011;16051;53.024;8.630;2023-03-14T12:57:25;9.67;;;2.33;;
17937;SDS011;16051;53.024;8.630;2023-03-14T13:01:40;6.53;;;1.60;;
17937;SDS011;16051;53.024;8.630;2023-03-14T13:06:00;5.00;;;1.80;;
17937;SDS011;16051;53.024;8.630;2023-03-14T13:14:46;10.87;;;2.20;;
17937;SDS011;16051;53.024;8.630;2023-03-14T13:19:00;7.67;;;1.67;;
17937;SDS011;16051;53.024;8.630;2023-03-14T13:23:19;8.27;;;1.80;;
17937;SDS011;16051;53.024;8.630;2023-03-14T13:27:22;6.77;;;2.07;;
17937;SDS011;16051;53.024;8.630;2023-03-14T13:31:43;7.23;;;2.20;;
17937;SDS011;16051;53.024;8.630;2023-03-14T13:35:49;7.93;;;1.80;;
17937;SDS011;16051;53.024;8.630;2023-03-14T13:39:57;6.77;;;1.60;;
17937;SDS011;16051;53.024;8.630;2023-03-14T13:44:01;8.03;;;1.97;;
17937;SDS011;16051;53.024;8.630;2023-03-14T13:48:09;5.43;;;1.43;;
17937;SDS011;16051;53.024;8.630;2023-03-14T13:52:27;8.07;;;1.37;;
17937;SDS011;16051;53.024;8.630;2023-03-14T13:56:32;7.20;;;1.93;;
17937;SDS011;16051;53.024;8.630;2023-03-14T14:05:12;8.67;;;1.90;;
17937;SDS011;16051;53.024;8.630;2023-03-14T14:09:26;8.77;;;2.13;;
17937;SDS011;16051;53.024;8.630;2023-03-14T14:13:32;3.60;;;1.37;;
17937;SDS011;16051;53.024;8.630;2023-03-14T14:22:19;4.53;;;1.40;;
17937;SDS011;16051;53.024;8.630;2023-03-14T14:26:23;3.77;;;1.40;;
17937;SDS011;16051;53.024;8.630;2023-03-14T14:35:38;5.60;;;1.53;;
17937;SDS011;16051;53.024;8.630;2023-03-14T14:39:54;10.23;;;1.87;;
17937;SDS011;16051;53.024;8.630;2023-03-14T14:44:01;8.20;;;1.67;;
17937;SDS011;16051;53.024;8.630;2023-03-14T14:48:06;7.10;;;1.47;;
17937;SDS011;16051;53.024;8.630;2023-03-14T14:52:31;9.40;;;2.00;;
17937;SDS011;16051;53.024;8.630;2023-03-14T14:56:45;7.03;;;1.60;;
17937;SDS011;16051;53.024;8.630;2023-03-14T15:00:58;5.97;;;1.87;;
17937;SDS011;16051;53.024;8.630;2023-03-14T15:05:08;5.00;;;1.80;;
17937;SDS011;16051;53.024;8.630;2023-03-14T15:09:21;9.33;;;1.77;;
17937;SDS011;16051;53.024;8.630;2023-03-14T15:13:24;5.17;;;1.80;;
17937;SDS011;16051;53.024;8.630;2023-03-14T15:17:27;6.60;;;1.70;;
17937;SDS011;16051;53.024;8.630;2023-03-14T15:21:35;2.73;;;1.60;;
17937;SDS011;16051;53.024;8.630;2023-03-14T15:25:37;5.77;;;2.00;;
17937;SDS011;16051;53.024;8.630;2023-03-14T15:29:40;2.40;;;1.20;;
17937;SDS011;16051;53.024;8.630;2023-03-14T15:33:45;6.13;;;2.00;;
17937;SDS011;16051;53.024;8.630;2023-03-14T15:37:48;5.93;;;1.60;;
17937;SDS011;16051;53.024;8.630;2023-03-14T15:42:00;4.17;;;1.70;;
17937;SDS011;16051;53.024;8.630;2023-03-14T15:46:04;6.93;;;1.80;;
17937;SDS011;16051;53.024;8.630;2023-03-14T15:50:12;5.83;;;1.53;;
17937;SDS011;16051;53.024;8.630;2023-03-14T15:54:14;5.40;;;1.87;;
17937;SDS011;16051;53.024;8.630;2023-03-14T15:58:17;6.37;;;1.60;;
17937;SDS011;16051;53.024;8.630;2023-03-14T16:02:21;4.13;;;1.50;;
17937;SDS011;16051;53.024;8.630;2023-03-14T16:06:25;4.63;;;1.53;;
17937;SDS011;16051;53.024;8.630;2023-03-14T16:10:32;6.33;;;1.40;;
17937;SDS011;16051;53.024;8.630;2023-03-14T16:14:35;4.07;;;1.40;;
17937;SDS011;16051;53.024;8.630;2023-03-14T16:18:41;5.03;;;1.87;;
17937;SDS011;16051;53.024;8.630;2023-03-14T16:22:54;12.87;;;5.50;;
17937;SDS011;16051;53.024;8.630;2023-03-14T16:26:57;7.20;;;2.67;;
17937;SDS011;16051;53.024;8.630;2023-03-14T16:30:59;8.13;;;2.00;;
17937;SDS011;16051;53.024;8.630;2023-03-14T16:35:03;5.33;;;2.87;;
17937;SDS011;16051;53.024;8.630;2023-03-14T16:39:07;9.07;;;2.23;;
17937;SDS011;16051;53.024;8.630;2023-03-14T16:43:09;12.97;;;7.70;;
17937;SDS011;16051;53.024;8.630;2023-03-14T16:47:11;9.03;;;4.03;;
17937;SDS011;16051;53.024;8.630;2023-03-14T16:51:21;7.80;;;3.20;;
17937;SDS011;16051;53.024;8.630;2023-03-14T16:55:25;8.73;;;3.30;;
17937;SDS011;16051;53.024;8.630;2023-03-14T17:03:50;6.20;;;1.90;;
17937;SDS011;16051;53.024;8.630;2023-03-14T17:08:00;7.00;;;2.80;;
17937;SDS011;16051;53.024;8.630;2023-03-14T17:12:10;6.47;;;2.27;;
17937;SDS011;16051;53.024;8.630;2023-03-14T17:16:12;5.90;;;1.50;;
17937;SDS011;16051;53.024;8.630;2023-03-14T17:20:14;4.27;;;1.30;;
17937;SDS011;16051;53.024;8.630;2023-03-14T17:24:22;4.50;;;1.80;;
17937;SDS011;16051;53.024;8.630;2023-03-14T17:28:29;3.30;;;1.67;;
17937;SDS011;16051;53.024;8.630;2023-03-14T17:32:32;9.60;;;3.20;;
17937;SDS011;16051;53.024;8.630;2023-03-14T17:36:34;3.63;;;1.57;;
17937;SDS011;16051;53.024;8.630;2023-03-14T17:40:36;6.87;;;2.10;;
17937;SDS011;16051;53.024;8.630;2023-03-14T17:49:22;5.00;;;1.70;;
17937;SDS011;16051;53.024;8.630;2023-03-14T17:53:33;6.37;;;2.30;;
17937;SDS011;16051;53.024;8.630;2023-03-14T17:57:38;7.20;;;1.53;;
17937;SDS011;16051;53.024;8.630;2023-03-14T18:01:45;6.47;;;1.40;;
17937;SDS011;16051;53.024;8.630;2023-03-14T18:05:50;7.47;;;1.80;;
17937;SDS011;16051;53.024;8.630;2023-03-14T18:09:52;5.87;;;1.80;;
17937;SDS011;16051;53.024;8.630;2023-03-14T18:13:56;6.40;;;1.97;;
17937;SDS011;16051;53.024;8.630;2023-03-14T18:18:01;4.40;;;1.83;;
17937;SDS011;16051;53.024;8.630;2023-03-14T18:22:04;5.27;;;1.77;;
17937;SDS011;16051;53.024;8.630;2023-03-14T18:26:06;5.17;;;1.90;;
17937;SDS011;16051;53.024;8.630;2023-03-14T18:30:09;5.17;;;2.10;;
17937;SDS011;16051;53.024;8.630;2023-03-14T18:34:14;6.07;;;2.40;;
17937;SDS011;16051;53.024;8.630;2023-03-14T18:38:17;4.70;;;1.50;;
17937;SDS011;16051;53.024;8.630;2023-03-14T18:42:19;7.90;;;1.67;;
17937;SDS011;16051;53.024;8.630;2023-03-14T18:46:25;6.57;;;1.87;;
17937;SDS011;16051;53.024;8.630;2023-03-14T18:50:29;5.80;;;2.30;;
17937;SDS011;16051;53.024;8.630;2023-03-14T18:58:41;6.90;;;2.00;;
17937;SDS011;16051;53.024;8.630;2023-03-14T19:02:44;4.17;;;1.57;;
17937;SDS011;16051;53.024;8.630;2023-03-14T19:06:47;3.60;;;1.37;;
17937;SDS011;16051;53.024;8.630;2023-03-14T19:10:53;10.77;;;2.43;;
17937;SDS011;16051;53.024;8.630;2023-03-14T19:15:01;5.73;;;1.80;;
17937;SDS011;16051;53.024;8.630;2023-03-14T19:19:03;5.57;;;1.50;;
17937;SDS011;16051;53.024;8.630;2023-03-14T19:23:13;6.13;;;1.70;;
17937;SDS011;16051;53.024;8.630;2023-03-14T19:27:15;6.27;;;2.23;;
17937;SDS011;16051;53.024;8.630;2023-03-14T19:44:32;7.17;;;2.10;;
17937;SDS011;16051;53.024;8.630;2023-03-14T19:53:04;10.47;;;3.00;;
17937;SDS011;16051;53.024;8.630;2023-03-14T19:57:11;6.47;;;3.17;;
17937;SDS011;16051;53.024;8.630;2023-03-14T20:01:13;7.50;;;3.00;;
17937;SDS011;16051;53.024;8.630;2023-03-14T20:09:52;10.23;;;2.40;;
17937;SDS011;16051;53.024;8.630;2023-03-14T20:13:55;3.67;;;1.80;;
17937;SDS011;16051;53.024;8.630;2023-03-14T20:17:58;3.47;;;1.97;;
17937;SDS011;16051;53.024;8.630;2023-03-14T20:22:00;8.10;;;1.77;;
17937;SDS011;16051;53.024;8.630;2023-03-14T20:26:03;7.70;;;2.10;;
17937;SDS011;16051;53.024;8.630;2023-03-14T20:30:08;7.40;;;2.03;;
17937;SDS011;16051;53.024;8.630;2023-03-14T20:34:13;6.13;;;1.83;;
17937;SDS011;16051;53.024;8.630;2023-03-14T20:38:17;4.70;;;2.10;;
17937;SDS011;16051;53.024;8.630;2023-03-14T20:42:19;8.47;;;3.13;;
17937;SDS011;16051;53.024;8.630;2023-03-14T20:51:26;6.73;;;2.00;;
17937;SDS011;16051;53.024;8.630;2023-03-14T20:55:28;10.07;;;2.00;;
17937;SDS011;16051;53.024;8.630;2023-03-14T20:59:48;5.70;;;1.70;;
17937;SDS011;16051;53.024;8.630;2023-03-14T21:03:50;7.50;;;1.80;;
17937;SDS011;16051;53.024;8.630;2023-03-14T21:07:54;7.93;;;2.10;;
17937;SDS011;16051;53.024;8.630;2023-03-14T21:11:56;5.37;;;1.63;;
17937;SDS011;16051;53.024;8.630;2023-03-14T21:15:59;9.20;;;2.07;;
17937;SDS011;16051;53.024;8.630;2023-03-14T21:20:01;3.20;;;1.73;;
17937;SDS011;16051;53.024;8.630;2023-03-14T21:24:07;7.47;;;1.70;;
17937;SDS011;16051;53.024;8.630;2023-03-14T21:28:10;4.07;;;1.27;;
17937;SDS011;16051;53.024;8.630;2023-03-14T21:36:48;5.27;;;1.37;;
17937;SDS011;16051;53.024;8.630;2023-03-14T21:40:59;4.87;;;1.50;;
17937;SDS011;16051;53.024;8.630;2023-03-14T21:49:31;7.67;;;2.93;;
17937;SDS011;16051;53.024;8.630;2023-03-14T21:53:37;8.77;;;4.73;;
17937;SDS011;16051;53.024;8.630;2023-03-14T21:57:40;8.43;;;3.00;;
17937;SDS011;16051;53.024;8.630;2023-03-14T22:01:43;6.07;;;1.40;;
17937;SDS011;16051;53.024;8.630;2023-03-14T22:05:46;4.33;;;2.27;;
17937;SDS011;16051;53.024;8.630;2023-03-14T22:09:48;2.47;;;1.30;;
17937;SDS011;16051;53.024;8.630;2023-03-14T22:13:52;2.97;;;1.23;;
17937;SDS011;16051;53.024;8.630;2023-03-14T22:17:54;4.07;;;1.90;;
17937;SDS011;16051;53.024;8.630;2023-03-14T22:21:56;5.77;;;2.07;;
17937;SDS011;16051;53.024;8.630;2023-03-14T22:25:59;7.10;;;2.20;;
17937;SDS011;16051;53.024;8.630;2023-03-14T22:30:09;6.00;;;2.40;;
17937;SDS011;16051;53.024;8.630;2023-03-14T22:34:12;8.40;;;2.60;;
17937;SDS011;16051;53.024;8.630;2023-03-14T22:38:15;4.53;;;2.60;;
17937;SDS011;16051;53.024;8.630;2023-03-14T22:42:17;10.30;;;4.13;;
17937;SDS011;16051;53.024;8.630;2023-03-14T22:46:20;6.27;;;2.83;;
17937;SDS011;16051;53.024;8.630;2023-03-14T22:50:23;4.23;;;1.70;;
17937;SDS011;16051;53.024;8.630;2023-03-14T22:54:25;7.23;;;2.03;;
17937;SDS011;16051;53.024;8.630;2023-03-14T22:58:28;5.83;;;1.60;;
17937;SDS011;16051;53.024;8.630;2023-03-14T23:02:38;3.43;;;1.50;;
17937;SDS011;16051;53.024;8.630;2023-03-14T23:06:40;4.70;;;1.50;;
17937;SDS011;16051;53.024;8.630;2023-03-14T23:10:42;5.73;;;1.70;;
17937;SDS011;16051;53.024;8.630;2023-03-14T23:14:45;8.70;;;1.90;;
17937;SDS011;16051;53.024;8.630;2023-03-14T23:18:48;3.63;;;1.57;;
17937;SDS011;16051;53.024;8.630;2023-03-14T23:22:55;7.43;;;1.63;;
17937;SDS011;16051;53.024;8.630;2023-03-14T23:27:12;7.80;;;2.33;;
17937;SDS011;16051;53.024;8.630;2023-03-14T23:31:19;11.20;;;2.40;;
17937;SDS011;16051;53.024;8.630;2023-03-14T23:35:23;3.40;;;1.60;;
17937;SDS011;16051;53.024;8.630;2023-03-14T23:39:25;4.37;;;1.77;;
17937;SDS011;16051;53.024;8.630;2023-03-14T23:43:27;5.23;;;2.07;;
17937;SDS011;16051;53.024;8.630;2023-03-14T23:47:39;3.13;;;1.60;;
17937;SDS011;16051;53.024;8.630;2023-03-14T23:51:43;7.43;;;2.07;;
17937;SDS011;16051;53.024;8.630;2023-03-14T23:55:45;8.90;;;2.57;;
17937;SDS011;16051;53.024;8.630;2023-03-14T23:59:47;5.93;;;1.80;;
